Time;durP1;ratioP1;P1;durP2;ratioP2;P2;SDS_P1;SDS_P2;PMS_P1;PMS_P2;Temp;Humidity;BMP_temperature;BMP_pressure;BME280_temperature;BME280_humidity;BME280_pressure;Samples;Min_cycle;Max_cycle;Signal;HPM_P1;HPM_P2
2022/04/16 00:02:11;;;;;;;24.70;14.05;;;;;;;;;;5072998;28;20047;-69
2022/04/16 00:05:16;;;;;;;23.50;12.82;;;;;;;;;;5072989;28;20047;-69
2022/04/16 00:08:20;;;;;;;24.52;12.30;;;;;;;;;;5072567;28;20051;-69
2022/04/16 00:11:25;;;;;;;21.30;12.70;;;;;;;;;;5073012;28;20043;-69
2022/04/16 00:14:29;;;;;;;27.88;12.85;;;;;;;;;;5072997;28;20506;-69
2022/04/16 00:17:36;;;;;;;25.17;12.40;;;;;;;;;;5071993;28;20048;-69
2022/04/16 00:20:40;;;;;;;21.90;12.45;;;;;;;;;;5072818;28;20059;-69
2022/04/16 00:23:45;;;;;;;28.25;12.70;;;;;;;;;;5073125;28;20067;-69
2022/04/16 00:26:50;;;;;;;26.60;12.52;;;;;;;;;;5072667;28;20040;-69
2022/04/16 00:29:55;;;;;;;30.25;12.38;;;;;;;;;;5071903;28;20067;-69
2022/04/16 00:33:00;;;;;;;25.80;12.80;;;;;;;;;;5072438;28;20052;-69
2022/04/16 00:36:05;;;;;;;27.42;13.48;;;;;;;;;;5072520;28;20055;-69
2022/04/16 00:39:09;;;;;;;24.95;12.82;;;;;;;;;;5072189;28;20051;-69
2022/04/16 00:42:13;;;;;;;27.25;14.27;;;;;;;;;;5072379;28;20060;-69
2022/04/16 00:45:18;;;;;;;28.45;14.05;;;;;;;;;;5071578;28;20483;-69
2022/04/16 00:48:23;;;;;;;28.88;13.57;;;;;;;;;;5071970;28;20385;-69
2022/04/16 00:51:28;;;;;;;24.33;12.60;;;;;;;;;;5072205;28;20086;-69
2022/04/16 00:54:32;;;;;;;21.23;14.25;;;;;;;;;;5072239;28;20039;-69
2022/04/16 00:57:40;;;;;;;24.23;12.43;;;;;;;;;;5071881;28;20043;-69
2022/04/16 01:00:44;;;;;;;26.17;13.73;;;;;;;;;;5072170;28;20047;-69
2022/04/16 01:03:49;;;;;;;24.42;14.07;;;;;;;;;;5071796;28;20044;-69
2022/04/16 01:06:53;;;;;;;29.85;13.57;;;;;;;;;;5071718;28;20051;-69
2022/04/16 01:09:58;;;;;;;26.63;14.38;;;;;;;;;;5071629;28;20043;-69
2022/04/16 01:13:04;;;;;;;28.73;14.93;;;;;;;;;;5071656;28;20039;-69
2022/04/16 01:16:08;;;;;;;29.85;14.93;;;;;;;;;;5071718;28;20058;-69
2022/04/16 01:19:14;;;;;;;23.73;14.20;;;;;;;;;;5071426;28;20524;-69
2022/04/16 01:22:20;;;;;;;21.35;14.32;;;;;;;;;;5071409;28;20044;-69
2022/04/16 01:25:27;;;;;;;29.80;15.20;;;;;;;;;;5071519;28;20047;-69
2022/04/16 01:28:31;;;;;;;33.63;14.30;;;;;;;;;;5071685;28;20415;-69
2022/04/16 01:31:36;;;;;;;27.13;14.82;;;;;;;;;;5071444;28;20043;-69
2022/04/16 01:34:40;;;;;;;26.88;15.98;;;;;;;;;;5071082;28;20043;-69
2022/04/16 01:37:44;;;;;;;34.58;15.48;;;;;;;;;;5071357;28;20043;-69
2022/04/16 01:40:49;;;;;;;32.78;16.20;;;;;;;;;;5071063;28;20111;-69
2022/04/16 01:43:56;;;;;;;25.92;15.18;;;;;;;;;;5071046;28;20587;-69
2022/04/16 01:47:00;;;;;;;34.45;16.85;;;;;;;;;;5070512;28;20035;-69
2022/04/16 01:50:05;;;;;;;31.58;16.38;;;;;;;;;;5070808;28;20432;-69
2022/04/16 01:53:10;;;;;;;27.90;17.23;;;;;;;;;;5070186;28;20059;-69
2022/04/16 01:56:14;;;;;;;28.73;18.08;;;;;;;;;;5070712;28;20055;-69
2022/04/16 01:59:19;;;;;;;31.83;17.80;;;;;;;;;;5070848;28;20052;-69
2022/04/16 02:02:24;;;;;;;33.20;18.40;;;;;;;;;;5071291;28;20052;-69
2022/04/16 02:05:28;;;;;;;29.80;18.02;;;;;;;;;;5070797;28;20048;-69
2022/04/16 02:08:32;;;;;;;28.50;18.10;;;;;;;;;;5070640;28;20059;-69
2022/04/16 02:11:36;;;;;;;28.00;17.80;;;;;;;;;;5070237;28;20051;-69
2022/04/16 02:14:41;;;;;;;30.17;17.90;;;;;;;;;;5070913;28;20039;-69
2022/04/16 02:17:45;;;;;;;24.08;17.77;;;;;;;;;;5070950;28;20047;-69
2022/04/16 02:20:50;;;;;;;33.75;18.48;;;;;;;;;;5070496;28;20059;-69
2022/04/16 02:23:54;;;;;;;26.90;18.35;;;;;;;;;;5070852;28;20048;-70
2022/04/16 02:26:58;;;;;;;34.50;18.58;;;;;;;;;;5070887;28;20051;-69
2022/04/16 02:30:07;;;;;;;29.00;17.83;;;;;;;;;;5069907;28;20043;-69
2022/04/16 02:33:12;;;;;;;30.95;17.33;;;;;;;;;;5070916;28;20051;-69
2022/04/16 02:36:16;;;;;;;32.60;18.38;;;;;;;;;;5069843;28;20047;-69
2022/04/16 02:39:21;;;;;;;31.42;17.83;;;;;;;;;;5069526;28;20055;-69
2022/04/16 02:42:25;;;;;;;28.58;18.17;;;;;;;;;;5070748;28;20047;-69
2022/04/16 02:48:52;;;;;;;37.33;18.88;;;;;;;;;;5070506;28;20067;-69
2022/04/16 02:51:56;;;;;;;30.35;18.00;;;;;;;;;;5070679;28;20531;-70
2022/04/16 02:55:00;;;;;;;30.33;18.50;;;;;;;;;;5069492;28;20039;-69
2022/04/16 02:58:05;;;;;;;29.55;18.35;;;;;;;;;;5072050;28;20039;-69
2022/04/16 03:01:09;;;;;;;30.27;19.20;;;;;;;;;;5074175;28;20047;-69
2022/04/16 03:04:13;;;;;;;30.08;18.08;;;;;;;;;;5061769;28;20053;-69
2022/04/16 03:07:18;;;;;;;32.70;18.77;;;;;;;;;;5073641;28;20410;-69
2022/04/16 03:10:23;;;;;;;23.08;18.15;;;;;;;;;;5073170;28;20056;-69
2022/04/16 03:13:28;;;;;;;26.85;18.38;;;;;;;;;;5073937;28;20039;-69
2022/04/16 03:19:55;;;;;;;31.95;18.73;;;;;;;;;;5074132;28;20056;-69
2022/04/16 03:23:00;;;;;;;26.50;18.02;;;;;;;;;;5072987;28;20479;-69
2022/04/16 03:26:04;;;;;;;27.13;17.77;;;;;;;;;;5072461;28;20056;-69
2022/04/16 03:29:08;;;;;;;27.73;18.70;;;;;;;;;;5073867;28;20048;-69
2022/04/16 03:32:12;;;;;;;30.70;18.85;;;;;;;;;;5073372;28;20044;-69
2022/04/16 03:35:21;;;;;;;28.40;17.58;;;;;;;;;;5061337;28;20515;-69
2022/04/16 03:38:25;;;;;;;26.13;17.73;;;;;;;;;;5073413;28;20039;-69
2022/04/16 03:41:29;;;;;;;28.67;16.70;;;;;;;;;;5073236;28;20048;-69
2022/04/16 03:44:33;;;;;;;27.70;17.35;;;;;;;;;;5073372;28;20042;-69
2022/04/16 03:47:37;;;;;;;29.38;16.85;;;;;;;;;;5061321;28;20039;-69
2022/04/16 03:50:41;;;;;;;30.63;18.00;;;;;;;;;;5073219;28;20048;-69
2022/04/16 03:53:46;;;;;;;24.63;16.60;;;;;;;;;;5073353;28;20502;-69
2022/04/16 04:00:13;;;;;;;27.92;15.18;;;;;;;;;;5072125;28;20059;-69
2022/04/16 04:03:17;;;;;;;23.35;14.98;;;;;;;;;;5072845;28;20546;-69
2022/04/16 04:06:22;;;;;;;21.75;15.02;;;;;;;;;;5072776;28;20051;-69
2022/04/16 04:09:26;;;;;;;22.98;14.35;;;;;;;;;;5072888;28;20260;-69
2022/04/16 04:12:31;;;;;;;20.75;14.38;;;;;;;;;;5072892;28;20506;-69
2022/04/16 04:15:35;;;;;;;26.77;13.93;;;;;;;;;;5073030;28;20057;-69
2022/04/16 04:18:40;;;;;;;26.20;14.90;;;;;;;;;;5073109;28;20043;-69
2022/04/16 04:21:44;;;;;;;32.88;15.27;;;;;;;;;;5072881;28;20396;-69
2022/04/16 04:24:48;;;;;;;24.08;15.18;;;;;;;;;;5072456;28;20055;-69
2022/04/16 04:27:53;;;;;;;28.65;15.82;;;;;;;;;;5072647;28;20047;-69
2022/04/16 04:30:57;;;;;;;35.70;16.70;;;;;;;;;;5072459;28;20048;-69
2022/04/16 04:34:02;;;;;;;29.67;16.20;;;;;;;;;;5072579;28;20051;-69
2022/04/16 04:37:06;;;;;;;26.00;16.58;;;;;;;;;;5072360;28;20043;-69
2022/04/16 04:40:10;;;;;;;39.17;18.40;;;;;;;;;;5071399;28;20075;-70
2022/04/16 04:43:15;;;;;;;34.92;16.98;;;;;;;;;;5071541;28;20063;-72
2022/04/16 04:46:19;;;;;;;26.45;16.27;;;;;;;;;;5071402;28;20408;-72
2022/04/16 04:49:23;;;;;;;25.33;15.95;;;;;;;;;;5072171;28;20189;-72
2022/04/16 04:52:29;;;;;;;30.30;15.88;;;;;;;;;;5072021;28;20051;-71
2022/04/16 04:55:33;;;;;;;30.23;16.55;;;;;;;;;;5070992;28;20044;-71
2022/04/16 04:58:38;;;;;;;30.23;16.30;;;;;;;;;;5071283;28;20456;-71
2022/04/16 05:01:42;;;;;;;28.95;15.48;;;;;;;;;;5072033;28;20044;-71
2022/04/16 05:04:46;;;;;;;24.73;15.88;;;;;;;;;;5072043;28;20103;-71
2022/04/16 05:07:50;;;;;;;36.35;15.60;;;;;;;;;;5071286;28;20051;-72
2022/04/16 05:10:55;;;;;;;42.67;16.92;;;;;;;;;;5072147;28;20051;-71
2022/04/16 05:13:59;;;;;;;30.13;15.85;;;;;;;;;;5071314;28;20044;-71
2022/04/16 05:17:04;;;;;;;29.88;14.93;;;;;;;;;;5070855;28;20044;-71
2022/04/16 05:20:09;;;;;;;32.10;13.35;;;;;;;;;;5070476;28;20051;-71
2022/04/16 05:23:13;;;;;;;27.55;14.60;;;;;;;;;;5071627;28;20039;-71
2022/04/16 05:26:17;;;;;;;26.33;13.50;;;;;;;;;;5071313;28;20051;-71
2022/04/16 05:29:23;;;;;;;24.02;12.52;;;;;;;;;;5071510;28;20051;-71
2022/04/16 05:32:34;;;;;;;19.50;12.45;;;;;;;;;;5071396;28;20047;-71
2022/04/16 05:35:38;;;;;;;20.67;10.70;;;;;;;;;;5070520;28;20060;-71
2022/04/16 05:38:43;;;;;;;20.25;11.93;;;;;;;;;;5071389;28;20055;-71
2022/04/16 05:41:47;;;;;;;18.60;11.70;;;;;;;;;;5070468;28;20483;-71
2022/04/16 05:44:51;;;;;;;19.52;10.88;;;;;;;;;;5070338;28;20050;-71
2022/04/16 05:47:56;;;;;;;24.33;11.23;;;;;;;;;;5070170;28;20305;-71
2022/04/16 05:51:01;;;;;;;31.45;14.32;;;;;;;;;;5070928;28;20043;-71
2022/04/16 05:54:05;;;;;;;32.08;12.02;;;;;;;;;;5070567;28;20048;-71
2022/04/16 05:57:09;;;;;;;28.17;12.50;;;;;;;;;;5070056;28;20503;-71
2022/04/16 06:00:13;;;;;;;27.55;11.70;;;;;;;;;;5069978;28;20047;-71
2022/04/16 06:03:18;;;;;;;30.77;12.77;;;;;;;;;;5070808;28;20503;-71
2022/04/16 06:06:22;;;;;;;41.25;15.68;;;;;;;;;;5070357;28;20297;-71
2022/04/16 06:09:28;;;;;;;43.35;22.48;;;;;;;;;;5070853;28;20043;-71
2022/04/16 06:12:32;;;;;;;34.70;18.73;;;;;;;;;;5071598;28;20059;-72
2022/04/16 06:15:39;;;;;;;29.25;15.95;;;;;;;;;;5071046;28;20048;-71
2022/04/16 06:18:43;;;;;;;35.58;17.75;;;;;;;;;;5069924;28;20048;-71
2022/04/16 06:21:47;;;;;;;27.67;17.25;;;;;;;;;;5070556;28;20048;-68
2022/04/16 06:24:51;;;;;;;29.95;16.40;;;;;;;;;;5070810;28;20067;-71
2022/04/16 06:27:56;;;;;;;31.45;16.00;;;;;;;;;;5070835;28;20095;-71
2022/04/16 06:31:00;;;;;;;26.65;16.38;;;;;;;;;;5070741;28;20492;-69
2022/04/16 06:34:05;;;;;;;29.55;16.15;;;;;;;;;;5074726;28;20051;-70
2022/04/16 06:37:09;;;;;;;28.30;13.88;;;;;;;;;;5074735;28;20043;-70
2022/04/16 06:40:14;;;;;;;25.38;12.40;;;;;;;;;;5074381;28;20479;-70
2022/04/16 06:43:18;;;;;;;24.88;12.90;;;;;;;;;;5074658;28;20051;-69
2022/04/16 06:46:29;;;;;;;28.23;10.52;;;;;;;;;;5073607;28;20427;-68
2022/04/16 06:49:33;;;;;;;22.83;10.98;;;;;;;;;;5073714;28;20063;-69
2022/04/16 06:52:38;;;;;;;23.13;9.93;;;;;;;;;;5074522;28;20051;-68
2022/04/16 06:55:43;;;;;;;23.75;9.27;;;;;;;;;;5074319;28;20515;-69
2022/04/16 06:58:47;;;;;;;25.70;9.90;;;;;;;;;;5073915;28;20044;-70
2022/04/16 07:01:52;;;;;;;24.33;9.60;;;;;;;;;;5077274;28;20055;-72
2022/04/16 07:04:58;;;;;;;23.42;9.05;;;;;;;;;;5075986;28;20047;-71
2022/04/16 07:08:03;;;;;;;24.98;8.75;;;;;;;;;;5075353;28;20059;-71
2022/04/16 07:11:07;;;;;;;37.67;8.48;;;;;;;;;;5074773;28;20043;-73
2022/04/16 07:14:11;;;;;;;15.88;8.77;;;;;;;;;;5074494;28;20051;-70
2022/04/16 07:17:16;;;;;;;23.05;8.20;;;;;;;;;;5062445;28;20047;-69
2022/04/16 07:20:21;;;;;;;16.92;6.78;;;;;;;;;;5074835;28;20427;-69
2022/04/16 07:23:26;;;;;;;10.10;6.60;;;;;;;;;;5074141;28;20035;-70
2022/04/16 07:26:30;;;;;;;9.55;5.47;;;;;;;;;;5074093;28;20056;-67
2022/04/16 07:29:34;;;;;;;20.15;9.27;;;;;;;;;;5074244;28;20036;-69
2022/04/16 07:32:39;;;;;;;25.30;9.35;;;;;;;;;;5074293;28;20040;-67
2022/04/16 07:35:43;;;;;;;19.42;9.23;;;;;;;;;;5073812;28;20043;-71
2022/04/16 07:38:48;;;;;;;16.08;5.80;;;;;;;;;;5074335;28;20043;-69
2022/04/16 07:41:52;;;;;;;10.73;4.78;;;;;;;;;;5075020;28;20048;-70
2022/04/16 07:44:56;;;;;;;8.98;4.45;;;;;;;;;;5074482;28;20047;-71
2022/04/16 07:48:01;;;;;;;10.65;4.03;;;;;;;;;;5075262;28;20044;-70
2022/04/16 07:51:05;;;;;;;11.75;4.00;;;;;;;;;;5074437;28;20043;-72
2022/04/16 07:54:09;;;;;;;10.77;3.40;;;;;;;;;;5074540;28;20198;-68
2022/04/16 07:57:15;;;;;;;12.13;4.43;;;;;;;;;;5074611;28;20503;-70
2022/04/16 08:00:19;;;;;;;10.57;4.38;;;;;;;;;;5074645;28;20055;-70
2022/04/16 08:03:23;;;;;;;8.88;3.80;;;;;;;;;;5074610;28;20048;-70
2022/04/16 08:06:28;;;;;;;9.85;3.53;;;;;;;;;;5073809;28;20040;-69
2022/04/16 08:09:34;;;;;;;13.45;3.22;;;;;;;;;;5074005;28;20045;-69
2022/04/16 08:12:40;;;;;;;6.03;3.00;;;;;;;;;;5062025;28;20040;-69
2022/04/16 08:15:45;;;;;;;6.90;3.72;;;;;;;;;;5072614;28;20037;-71
2022/04/16 08:18:49;;;;;;;15.90;3.80;;;;;;;;;;5073679;28;20041;-63
2022/04/16 08:21:54;;;;;;;8.75;3.30;;;;;;;;;;5074126;28;20048;-72
2022/04/16 08:28:21;;;;;;;11.65;4.78;;;;;;;;;;5073233;28;20043;-69
2022/04/16 08:31:26;;;;;;;15.68;4.00;;;;;;;;;;5073755;28;20047;-73
2022/04/16 08:34:30;;;;;;;10.63;2.75;;;;;;;;;;5073413;28;20047;-69
2022/04/16 08:37:34;;;;;;;11.32;3.85;;;;;;;;;;5072668;28;20424;-69
2022/04/16 08:40:39;;;;;;;6.10;3.03;;;;;;;;;;5072382;28;20055;-71
2022/04/16 08:43:43;;;;;;;5.28;2.60;;;;;;;;;;5073147;28;20036;-69
2022/04/16 08:46:48;;;;;;;5.95;2.60;;;;;;;;;;5072250;28;20048;-69
2022/04/16 08:49:52;;;;;;;7.05;2.67;;;;;;;;;;5073615;28;20048;-69
2022/04/16 08:52:58;;;;;;;8.07;2.90;;;;;;;;;;5072685;28;20393;-69
2022/04/16 08:56:03;;;;;;;6.97;2.80;;;;;;;;;;5071698;28;20041;-71
2022/04/16 08:59:07;;;;;;;5.53;3.00;;;;;;;;;;5072339;28;20044;-70
2022/04/16 09:02:12;;;;;;;8.80;2.63;;;;;;;;;;5072284;28;20041;-68
2022/04/16 09:05:18;;;;;;;14.25;2.20;;;;;;;;;;5073452;28;20168;-69
2022/04/16 09:08:29;;;;;;;7.45;2.22;;;;;;;;;;5072537;28;20052;-69
2022/04/16 09:11:33;;;;;;;7.78;2.80;;;;;;;;;;5073378;28;20033;-70
2022/04/16 09:14:43;;;;;;;8.88;3.17;;;;;;;;;;5072286;28;20032;-69
2022/04/16 09:18:00;;;;;;;11.90;2.33;;;;;;;;;;5073647;28;20052;-70
2022/04/16 09:21:11;;;;;;;5.07;1.95;;;;;;;;;;5073310;28;20504;-70
2022/04/16 09:24:15;;;;;;;7.22;2.05;;;;;;;;;;5072296;28;20049;-70
2022/04/16 09:27:19;;;;;;;8.77;2.28;;;;;;;;;;5072233;28;20036;-70
2022/04/16 09:30:25;;;;;;;6.32;2.55;;;;;;;;;;5072737;28;20033;-68
2022/04/16 09:33:37;;;;;;;4.40;2.22;;;;;;;;;;5072023;28;20088;-69
2022/04/16 09:36:46;;;;;;;3.45;2.28;;;;;;;;;;5072408;28;20045;-71
2022/04/16 09:39:52;;;;;;;5.50;2.60;;;;;;;;;;5072160;28;20498;-70
2022/04/16 09:43:01;;;;;;;12.27;3.03;;;;;;;;;;5072525;28;20044;-69
2022/04/16 09:46:12;;;;;;;10.70;3.10;;;;;;;;;;5073428;28;20055;-68
2022/04/16 09:49:20;;;;;;;6.60;2.42;;;;;;;;;;5072169;28;20048;-71
2022/04/16 09:52:29;;;;;;;8.68;2.45;;;;;;;;;;5070766;28;20044;-67
2022/04/16 09:55:34;;;;;;;4.80;2.85;;;;;;;;;;5073701;28;20049;-70
2022/04/16 09:58:40;;;;;;;11.55;3.03;;;;;;;;;;5071609;28;20040;-69
2022/04/16 10:01:49;;;;;;;5.07;2.97;;;;;;;;;;5071015;28;20055;-69
2022/04/16 10:04:54;;;;;;;5.43;3.25;;;;;;;;;;5071764;28;20032;-69
2022/04/16 10:07:59;;;;;;;6.80;3.22;;;;;;;;;;5084128;28;20492;-69
2022/04/16 10:11:08;;;;;;;5.55;2.72;;;;;;;;;;5071895;28;20036;-70
2022/04/16 10:14:20;;;;;;;6.35;3.08;;;;;;;;;;5072290;28;20036;-72
2022/04/16 10:17:25;;;;;;;3.40;2.55;;;;;;;;;;5071116;28;20473;-70
2022/04/16 10:20:29;;;;;;;11.60;3.13;;;;;;;;;;5071002;28;20397;-69
2022/04/16 10:23:41;;;;;;;9.27;3.03;;;;;;;;;;5070519;28;20035;-69
2022/04/16 10:26:47;;;;;;;5.85;2.72;;;;;;;;;;5072563;28;20044;-68
2022/04/16 10:29:52;;;;;;;5.82;3.20;;;;;;;;;;5071854;28;20037;-69
2022/04/16 10:32:56;;;;;;;7.35;3.33;;;;;;;;;;5071582;28;20040;-68
2022/04/16 10:36:10;;;;;;;10.07;3.08;;;;;;;;;;5071410;28;20044;-69
2022/04/16 10:39:16;;;;;;;6.75;3.40;;;;;;;;;;5070772;28;20044;-69
2022/04/16 10:42:31;;;;;;;9.93;4.03;;;;;;;;;;5071946;28;20382;-69
2022/04/16 10:45:36;;;;;;;5.43;2.80;;;;;;;;;;5072114;28;20489;-68
2022/04/16 10:48:41;;;;;;;9.55;3.17;;;;;;;;;;5071464;28;20040;-68
2022/04/16 10:51:46;;;;;;;9.27;3.80;;;;;;;;;;5070662;28;20040;-68
2022/04/16 10:55:00;;;;;;;6.25;3.03;;;;;;;;;;5071211;28;20167;-68
2022/04/16 10:58:06;;;;;;;6.15;3.30;;;;;;;;;;5072823;28;20040;-69
2022/04/16 11:01:11;;;;;;;4.63;2.92;;;;;;;;;;5071223;28;20044;-69
2022/04/16 11:04:15;;;;;;;4.25;2.40;;;;;;;;;;5071679;28;20036;-69
2022/04/16 11:07:22;;;;;;;4.10;2.20;;;;;;;;;;5070445;28;20052;-69
2022/04/16 11:10:28;;;;;;;5.10;2.38;;;;;;;;;;5071499;28;20045;-69
2022/04/16 11:13:33;;;;;;;7.72;2.80;;;;;;;;;;5058874;28;20041;-67
2022/04/16 11:16:44;;;;;;;7.60;3.38;;;;;;;;;;5071817;28;20036;-69
2022/04/16 11:20:02;;;;;;;13.50;3.55;;;;;;;;;;5074205;28;20041;-70
2022/04/16 11:23:11;;;;;;;6.00;3.00;;;;;;;;;;5074762;28;20048;-70
2022/04/16 11:36:30;;;;;;;5.35;2.80;;;;;;;;;;5075101;28;20040;-70
2022/04/16 11:39:34;;;;;;;6.55;3.05;;;;;;;;;;5074117;28;20044;-70
2022/04/16 11:42:39;;;;;;;6.90;3.00;;;;;;;;;;5075365;28;20045;-68
2022/04/16 11:45:46;;;;;;;9.10;3.13;;;;;;;;;;5074696;28;20032;-70
2022/04/16 11:48:50;;;;;;;10.35;3.20;;;;;;;;;;5074009;28;20036;-70
2022/04/16 11:51:55;;;;;;;6.63;3.42;;;;;;;;;;5073592;28;20047;-69
2022/04/16 11:55:05;;;;;;;4.00;2.88;;;;;;;;;;5074809;28;20033;-69
2022/04/16 11:58:10;;;;;;;5.88;2.97;;;;;;;;;;5075404;28;20032;-69
2022/04/16 12:01:18;;;;;;;7.22;3.38;;;;;;;;;;5072785;28;20044;-69
2022/04/16 12:04:33;;;;;;;5.93;3.20;;;;;;;;;;5074893;28;20044;-69
2022/04/16 12:07:48;;;;;;;7.40;3.20;;;;;;;;;;5073389;28;20053;-69
2022/04/16 12:10:52;;;;;;;5.70;2.88;;;;;;;;;;5073483;28;20033;-69
2022/04/16 12:13:58;;;;;;;8.38;3.33;;;;;;;;;;5062069;28;20389;-69
2022/04/16 12:17:02;;;;;;;6.43;2.80;;;;;;;;;;5074240;28;20037;-67
2022/04/16 12:20:11;;;;;;;7.05;3.17;;;;;;;;;;5074302;28;20377;-67
2022/04/16 12:23:22;;;;;;;5.18;2.85;;;;;;;;;;5074307;28;20056;-68
2022/04/16 12:26:26;;;;;;;5.93;3.20;;;;;;;;;;5073489;28;20033;-69
2022/04/16 12:29:31;;;;;;;7.45;3.30;;;;;;;;;;5071984;28;20033;-67
2022/04/16 12:32:36;;;;;;;5.38;2.97;;;;;;;;;;5073598;28;20041;-67
2022/04/16 12:35:45;;;;;;;5.82;3.05;;;;;;;;;;5073839;28;20040;-70
2022/04/16 12:38:49;;;;;;;11.00;3.53;;;;;;;;;;5073081;28;20041;-69
2022/04/16 12:41:57;;;;;;;4.35;2.70;;;;;;;;;;5074117;28;20503;-68
2022/04/16 12:45:01;;;;;;;9.50;3.20;;;;;;;;;;5072048;28;20036;-68
2022/04/16 12:48:06;;;;;;;5.78;2.80;;;;;;;;;;5073689;28;20040;-69
2022/04/16 12:51:11;;;;;;;8.40;2.90;;;;;;;;;;5071786;28;20040;-69
2022/04/16 12:54:15;;;;;;;7.60;3.50;;;;;;;;;;5074124;28;20036;-69
2022/04/16 12:57:21;;;;;;;7.32;3.20;;;;;;;;;;5073831;28;20036;-70
2022/04/16 13:00:27;;;;;;;8.57;3.42;;;;;;;;;;5072815;28;20048;-68
2022/04/16 13:03:32;;;;;;;6.32;3.08;;;;;;;;;;5073674;28;20032;-68
2022/04/16 13:06:36;;;;;;;7.03;3.10;;;;;;;;;;5072267;28;20381;-68
2022/04/16 13:09:40;;;;;;;4.25;3.08;;;;;;;;;;5073268;28;20033;-72
2022/04/16 13:12:45;;;;;;;9.05;3.63;;;;;;;;;;5060558;28;20037;-69
2022/04/16 13:15:51;;;;;;;5.78;3.42;;;;;;;;;;5072604;28;20044;-68
2022/04/16 13:18:56;;;;;;;6.55;3.35;;;;;;;;;;5072354;28;20032;-70
2022/04/16 13:22:01;;;;;;;5.15;2.90;;;;;;;;;;5071439;28;20052;-70
2022/04/16 13:25:06;;;;;;;7.05;2.83;;;;;;;;;;5072700;28;20040;-70
2022/04/16 13:28:10;;;;;;;5.97;3.63;;;;;;;;;;5071616;28;20040;-69
2022/04/16 13:31:14;;;;;;;5.35;2.92;;;;;;;;;;5073446;28;20373;-68
2022/04/16 13:34:19;;;;;;;5.28;2.80;;;;;;;;;;5072201;28;20033;-67
2022/04/16 13:37:24;;;;;;;9.52;3.25;;;;;;;;;;5072822;28;20040;-70
2022/04/16 13:43:52;;;;;;;6.18;3.38;;;;;;;;;;5072022;28;20045;-70
2022/04/16 13:46:56;;;;;;;5.97;3.03;;;;;;;;;;5070599;28;20370;-70
2022/04/16 13:50:01;;;;;;;7.05;3.90;;;;;;;;;;5059829;28;20040;-70
2022/04/16 13:53:06;;;;;;;5.10;3.10;;;;;;;;;;5073150;28;20040;-71
2022/04/16 13:56:13;;;;;;;6.53;3.40;;;;;;;;;;5072004;28;20045;-70
2022/04/16 13:59:18;;;;;;;5.60;3.08;;;;;;;;;;5071810;28;20032;-70
2022/04/16 14:02:22;;;;;;;7.88;3.50;;;;;;;;;;5071713;28;20052;-68
2022/04/16 14:05:48;;;;;;;9.43;3.42;;;;;;;;;;5070854;28;20041;-68
2022/04/16 14:08:53;;;;;;;10.93;3.22;;;;;;;;;;5071451;28;20052;-67
2022/04/16 14:11:59;;;;;;;7.20;3.80;;;;;;;;;;5072535;28;20055;-68
2022/04/16 14:15:04;;;;;;;9.43;3.80;;;;;;;;;;5072079;28;20040;-69
2022/04/16 14:18:09;;;;;;;10.75;3.33;;;;;;;;;;5071128;28;20373;-67
2022/04/16 14:21:13;;;;;;;3.88;3.00;;;;;;;;;;5070475;28;20051;-69
2022/04/16 14:24:21;;;;;;;8.63;3.40;;;;;;;;;;5072458;28;20040;-70
2022/04/16 14:27:25;;;;;;;10.63;3.30;;;;;;;;;;5071430;28;20183;-69
2022/04/16 14:30:29;;;;;;;9.93;3.70;;;;;;;;;;5070834;28;20048;-69
2022/04/16 14:33:35;;;;;;;10.88;4.45;;;;;;;;;;5072012;28;20040;-70
2022/04/16 14:36:39;;;;;;;12.02;4.32;;;;;;;;;;5071034;28;20051;-70
2022/04/16 14:39:44;;;;;;;8.90;3.72;;;;;;;;;;5070768;28;20048;-69
2022/04/16 14:42:51;;;;;;;6.75;3.38;;;;;;;;;;5071642;28;20036;-69
2022/04/16 14:45:56;;;;;;;7.03;3.70;;;;;;;;;;5071436;28;20370;-68
2022/04/16 14:49:01;;;;;;;9.45;3.67;;;;;;;;;;5071457;28;20033;-69
2022/04/16 14:52:06;;;;;;;8.63;3.63;;;;;;;;;;5071541;28;20036;-70
2022/04/16 14:55:14;;;;;;;10.70;4.18;;;;;;;;;;5075998;28;20032;-70
2022/04/16 14:58:19;;;;;;;10.13;4.15;;;;;;;;;;5075946;28;20576;-70
2022/04/16 15:01:23;;;;;;;13.75;4.25;;;;;;;;;;5075070;28;20419;-69
2022/04/16 15:04:27;;;;;;;16.13;4.22;;;;;;;;;;5074328;28;20523;-70
2022/04/16 15:07:34;;;;;;;10.73;4.15;;;;;;;;;;5074420;28;20313;-71
2022/04/16 15:10:38;;;;;;;10.25;4.32;;;;;;;;;;5073962;28;20043;-68
2022/04/16 15:13:43;;;;;;;8.40;3.80;;;;;;;;;;5074477;28;20051;-70
2022/04/16 15:16:47;;;;;;;8.45;4.13;;;;;;;;;;5074914;28;20040;-70
2022/04/16 15:19:52;;;;;;;13.82;4.50;;;;;;;;;;5074850;28;20040;-70
2022/04/16 15:22:56;;;;;;;8.95;4.07;;;;;;;;;;5074094;28;20065;-69
2022/04/16 15:26:00;;;;;;;9.38;4.22;;;;;;;;;;5074153;28;20045;-71
2022/04/16 15:29:05;;;;;;;14.85;4.00;;;;;;;;;;5074641;28;20369;-69
2022/04/16 15:32:10;;;;;;;13.93;4.40;;;;;;;;;;5074862;28;20043;-69
2022/04/16 15:35:23;;;;;;;13.65;3.95;;;;;;;;;;5074886;28;20039;-70
2022/04/16 15:38:29;;;;;;;11.05;3.78;;;;;;;;;;5074405;28;20047;-69
2022/04/16 15:41:33;;;;;;;10.10;3.75;;;;;;;;;;5073376;28;20051;-69
2022/04/16 15:44:38;;;;;;;5.40;3.28;;;;;;;;;;5074207;28;20051;-71
2022/04/16 15:47:43;;;;;;;7.18;3.65;;;;;;;;;;5073903;28;20045;-70
2022/04/16 15:50:50;;;;;;;14.00;3.80;;;;;;;;;;5074753;28;20040;-72
2022/04/16 15:53:56;;;;;;;15.85;4.05;;;;;;;;;;5074530;28;20039;-69
2022/04/16 15:56:59;;;;;;;12.07;4.10;;;;;;;;;;5072981;28;20044;-69
2022/04/16 16:00:05;;;;;;;9.20;3.58;;;;;;;;;;5074014;28;20043;-69
2022/04/16 16:03:09;;;;;;;10.13;4.90;;;;;;;;;;5074695;28;20048;-70
2022/04/16 16:06:13;;;;;;;9.25;4.45;;;;;;;;;;5074227;28;20040;-70
2022/04/16 16:09:18;;;;;;;10.80;4.20;;;;;;;;;;5074295;28;20378;-69
2022/04/16 16:12:23;;;;;;;8.70;3.53;;;;;;;;;;5073247;28;20045;-69
2022/04/16 16:15:27;;;;;;;8.50;4.53;;;;;;;;;;5073837;28;20294;-69
2022/04/16 16:18:31;;;;;;;9.32;4.38;;;;;;;;;;5073828;28;20032;-69
2022/04/16 16:21:36;;;;;;;9.50;3.55;;;;;;;;;;5073691;28;20294;-68
2022/04/16 16:24:43;;;;;;;9.02;3.60;;;;;;;;;;5072532;28;20040;-68
2022/04/16 16:27:47;;;;;;;11.40;3.30;;;;;;;;;;5061367;28;20377;-68
2022/04/16 16:30:52;;;;;;;9.73;3.88;;;;;;;;;;5073665;28;20055;-69
2022/04/16 16:33:56;;;;;;;10.45;4.03;;;;;;;;;;5072969;28;20044;-69
2022/04/16 16:37:03;;;;;;;12.25;3.55;;;;;;;;;;5073856;28;20063;-68
2022/04/16 16:40:11;;;;;;;8.88;2.78;;;;;;;;;;5073312;28;20058;-69
2022/04/16 16:43:17;;;;;;;13.73;3.80;;;;;;;;;;5072911;28;20354;-70
2022/04/16 16:46:21;;;;;;;9.57;3.15;;;;;;;;;;5062163;28;20397;-70
2022/04/16 16:49:26;;;;;;;8.05;3.03;;;;;;;;;;5074368;28;20040;-69
2022/04/16 16:52:30;;;;;;;10.07;3.28;;;;;;;;;;5073051;28;20381;-69
2022/04/16 16:55:34;;;;;;;11.65;3.05;;;;;;;;;;5073049;28;20047;-69
2022/04/16 16:58:39;;;;;;;9.55;3.67;;;;;;;;;;5073678;28;20495;-70
2022/04/16 17:01:46;;;;;;;12.65;3.40;;;;;;;;;;5072567;28;20044;-69
2022/04/16 17:05:06;;;;;;;9.52;2.70;;;;;;;;;;5071612;28;20052;-70
2022/04/16 17:08:19;;;;;;;5.88;3.30;;;;;;;;;;5073218;28;20048;-68
2022/04/16 17:11:23;;;;;;;11.23;3.08;;;;;;;;;;5072561;28;20045;-68
2022/04/16 17:21:14;;;;;;;10.40;3.40;;;;;;;;;;5071955;28;20385;-68
2022/04/16 17:24:18;;;;;;;6.88;2.75;;;;;;;;;;5071767;28;20043;-69
2022/04/16 17:27:22;;;;;;;13.13;3.05;;;;;;;;;;5071812;28;20048;-68
2022/04/16 17:30:28;;;;;;;8.63;3.03;;;;;;;;;;5059266;28;20050;-68
2022/04/16 17:33:33;;;;;;;15.20;2.95;;;;;;;;;;5070737;28;20036;-68
2022/04/16 17:36:38;;;;;;;6.78;2.38;;;;;;;;;;5070529;28;20047;-68
2022/04/16 17:39:46;;;;;;;18.85;3.75;;;;;;;;;;5071383;28;20032;-69
2022/04/16 17:42:51;;;;;;;13.70;3.97;;;;;;;;;;5071659;28;20053;-69
2022/04/16 17:45:56;;;;;;;7.40;2.90;;;;;;;;;;5071636;28;20039;-70
2022/04/16 17:49:02;;;;;;;16.80;2.65;;;;;;;;;;5059526;28;20036;-71
2022/04/16 17:52:07;;;;;;;9.43;2.45;;;;;;;;;;5071640;28;20511;-69
2022/04/16 17:55:12;;;;;;;11.40;2.40;;;;;;;;;;5071378;28;20044;-68
2022/04/16 17:58:16;;;;;;;10.43;2.53;;;;;;;;;;5071465;28;20055;-69
2022/04/16 18:01:21;;;;;;;18.90;3.13;;;;;;;;;;5069997;28;20056;-68
2022/04/16 18:04:26;;;;;;;7.30;2.58;;;;;;;;;;5070165;28;20042;-68
2022/04/16 18:07:30;;;;;;;11.10;2.90;;;;;;;;;;5070478;28;20044;-67
2022/04/16 18:10:35;;;;;;;12.90;2.30;;;;;;;;;;5070396;28;20059;-69
2022/04/16 18:13:41;;;;;;;5.43;2.53;;;;;;;;;;5071010;28;20048;-70
2022/04/16 18:16:46;;;;;;;21.73;3.47;;;;;;;;;;5071065;28;20033;-68
2022/04/16 18:19:52;;;;;;;11.43;2.55;;;;;;;;;;5070812;28;20048;-68
2022/04/16 18:22:56;;;;;;;6.47;2.20;;;;;;;;;;5070861;28;20515;-68
2022/04/16 18:26:00;;;;;;;5.88;2.20;;;;;;;;;;5070762;28;20033;-68
2022/04/16 18:29:05;;;;;;;6.57;2.47;;;;;;;;;;5073677;28;20286;-68
2022/04/16 18:32:10;;;;;;;11.98;2.05;;;;;;;;;;5073942;28;20040;-68
2022/04/16 18:35:16;;;;;;;8.88;2.33;;;;;;;;;;5074541;28;20051;-68
2022/04/16 18:38:20;;;;;;;5.47;2.70;;;;;;;;;;5062384;28;20036;-69
2022/04/16 18:41:25;;;;;;;13.38;3.15;;;;;;;;;;5074746;28;20045;-71
2022/04/16 18:44:31;;;;;;;11.20;2.85;;;;;;;;;;5074838;28;20043;-72
2022/04/16 18:47:36;;;;;;;6.47;2.22;;;;;;;;;;5073948;28;20047;-73
2022/04/16 18:50:40;;;;;;;6.40;2.17;;;;;;;;;;5074155;28;20377;-69